Search for airport 
image banner adimage banner adimage banner ad
image banner ad

9N2 - Philadelphia

Located in Essington, United States

ICAO - 9N2, IATA -

Data provided by Airmate  

General information

Coordinates: N39°51'32" W75°17'59"
Elevation is feet MSL.
Magnetic variation is -11° East
View others Airports in Pennsylvania

Operational data

Special qualification required
Current time UTC:
Current local time:
Weather at : KPHL - Philadelphia Intl ( 5 km )
METAR: KPHL 091154Z 28004KT 10SM BKN170 BKN250 09/03 A3012 RMK AO2 SLP200 70001 T00890033 10094 20083 51013
TAF: KPHL 091120Z 0912/1018 VRB04KT P6SM BKN200 FM092200 15006KT P6SM VCSH OVC025 FM100400 12005KT P6SM VCSH BKN025 WS020/21040KT FM100700 24005KT P6SM BKN035 WS020/23055KT FM101300 31010KT P6SM SCT030
View NOTAMs / SUP AIP / TFR affecting this airport [VIEW]
Communications frequencies: [VIEW]

Runways:

RWY identifierQFULength (ft)Width (ft)SurfaceLDA (ft)
11W9100250WATER
29W9100250WATER

Airport contact information

Address: Essington United States

Satellite view of 9N2